createdAt,value
2022-07-26T00:01:21.722Z,98147.47
2022-07-26T00:03:55.096Z,98157.06
2022-07-26T00:06:25.643Z,98156.13
2022-07-26T00:08:55.505Z,98160.16
2022-07-26T00:11:25.766Z,98157.66
2022-07-26T00:13:55.982Z,98163.50
2022-07-26T00:16:25.843Z,98168.63
2022-07-26T00:18:58.654Z,98167.53
2022-07-26T00:21:28.377Z,98179.94
2022-07-26T00:23:58.036Z,98179.31
2022-07-26T00:26:27.710Z,98175.13
2022-07-26T00:28:57.402Z,98178.50
2022-07-26T00:31:27.175Z,98162.56
2022-07-26T00:33:59.426Z,98176.38
2022-07-26T00:36:29.899Z,98173.44
2022-07-26T00:38:59.533Z,98173.91
2022-07-26T00:41:29.250Z,98174.22
2022-07-26T00:44:01.776Z,98161.66
2022-07-26T00:46:32.142Z,98169.38
2022-07-26T00:49:04.724Z,98168.00
2022-07-26T00:51:34.602Z,98174.38
2022-07-26T00:54:04.821Z,98165.38
2022-07-26T00:56:35.659Z,98177.97
2022-07-26T00:59:06.009Z,98169.09
2022-07-26T01:01:36.121Z,98185.50
2022-07-26T01:04:09.214Z,98187.22
2022-07-26T01:09:14.694Z,98190.38
2022-07-26T01:11:45.786Z,98182.38
2022-07-26T01:14:15.577Z,98191.97
2022-07-26T01:16:45.259Z,98207.84
2022-07-26T01:19:17.688Z,98248.50
2022-07-26T01:21:50.262Z,98264.34
2022-07-26T01:24:20.353Z,98261.00
2022-07-26T01:26:50.001Z,98258.00
2022-07-26T01:29:19.932Z,98249.72
2022-07-26T01:31:49.651Z,98250.38
2022-07-26T01:34:20.143Z,98259.44
2022-07-26T01:36:54.443Z,98254.78
2022-07-26T01:39:24.194Z,98242.56
2022-07-26T01:41:53.845Z,98235.25
2022-07-26T01:44:23.457Z,98220.03
2022-07-26T01:46:53.374Z,98219.13
2022-07-26T01:49:23.095Z,98225.94
2022-07-26T01:51:55.361Z,98226.88
2022-07-26T01:54:25.058Z,98237.78
2022-07-26T01:56:54.714Z,98226.63
2022-07-26T01:59:24.452Z,98217.84
2022-07-26T02:01:54.222Z,98220.31
2022-07-26T02:04:36.429Z,98212.88
2022-07-26T02:07:13.167Z,98219.13
2022-07-26T02:09:42.986Z,98223.09
2022-07-26T02:12:12.910Z,98212.53
2022-07-26T02:14:42.532Z,98215.22
2022-07-26T02:17:12.529Z,98212.53
2022-07-26T02:19:42.350Z,98209.25
2022-07-26T02:22:14.677Z,98210.16
2022-07-26T02:24:44.734Z,98212.03
2022-07-26T02:27:14.372Z,98202.41
2022-07-26T02:29:44.152Z,98201.34
2022-07-26T02:32:13.969Z,98198.13
2022-07-26T02:34:43.708Z,98208.00
2022-07-26T02:37:16.009Z,98205.94
2022-07-26T02:39:45.724Z,98195.19
2022-07-26T02:42:15.422Z,98203.34
2022-07-26T02:44:45.068Z,98194.69
2022-07-26T02:47:14.713Z,98202.81
2022-07-26T02:49:44.368Z,98206.66
2022-07-26T02:52:16.580Z,98207.16
2022-07-26T02:54:46.299Z,98200.19
2022-07-26T02:57:16.099Z,98210.13
2022-07-26T02:59:45.779Z,98204.06
2022-07-26T03:02:15.533Z,98193.09
2022-07-26T03:04:45.219Z,98198.72
2022-07-26T03:07:17.406Z,98204.69
2022-07-26T03:09:47.033Z,98201.50
2022-07-26T03:12:16.663Z,98196.44
2022-07-26T03:14:46.358Z,98189.97
2022-07-26T03:17:16.091Z,98193.78
2022-07-26T03:19:45.803Z,98187.53
2022-07-26T03:22:18.077Z,98188.06
2022-07-26T03:24:47.716Z,98192.75
2022-07-26T03:27:17.416Z,98192.75
2022-07-26T03:29:47.066Z,98189.88
2022-07-26T03:32:16.716Z,98198.09
2022-07-26T03:34:46.382Z,98198.81
2022-07-26T03:37:18.824Z,98195.13
2022-07-26T03:39:48.527Z,98200.34
2022-07-26T03:42:18.352Z,98201.84
2022-07-26T03:44:48.024Z,98202.69
2022-07-26T03:47:17.683Z,98205.63
2022-07-26T03:49:47.401Z,98209.63
2022-07-26T03:52:19.672Z,98211.19
2022-07-26T03:54:49.376Z,98222.13
2022-07-26T03:57:16.523Z,98221.59
2022-07-26T03:59:46.192Z,98226.44
2022-07-26T04:02:15.968Z,98221.50
2022-07-26T04:04:45.661Z,98213.09
2022-07-26T04:07:16.139Z,98222.66
2022-07-26T04:09:48.604Z,98219.34
2022-07-26T04:12:18.239Z,98220.88
2022-07-26T04:14:47.860Z,98219.91
2022-07-26T04:17:17.557Z,98216.81
2022-07-26T04:19:47.322Z,98218.78
2022-07-26T04:22:17.035Z,98211.94
2022-07-26T04:24:49.364Z,98214.34
2022-07-26T04:27:19.012Z,98218.09
2022-07-26T04:29:48.668Z,98224.88
2022-07-26T04:32:18.386Z,98229.13
2022-07-26T04:34:48.212Z,98220.88
2022-07-26T04:37:18.091Z,98232.16
2022-07-26T04:39:54.939Z,98223.03
2022-07-26T04:42:24.862Z,98230.34
2022-07-26T04:44:54.578Z,98235.38
2022-07-26T04:47:24.267Z,98238.06
2022-07-26T04:49:54.031Z,98235.88
2022-07-26T04:52:23.709Z,98240.44
2022-07-26T04:54:56.164Z,98247.16
2022-07-26T04:57:25.897Z,98245.38
2022-07-26T05:00:16.767Z,98245.66
2022-07-26T05:02:45.562Z,98247.22
2022-07-26T05:05:15.342Z,98250.41
2022-07-26T05:07:45.940Z,98251.22
2022-07-26T05:10:20.271Z,98254.00
2022-07-26T05:12:50.272Z,98245.22
2022-07-26T05:15:20.006Z,98251.69
2022-07-26T05:17:49.787Z,98252.47
2022-07-26T05:20:20.239Z,98255.31
2022-07-26T05:22:49.908Z,98248.47
2022-07-26T05:25:22.195Z,98258.25
2022-07-26T05:27:51.900Z,98252.84
2022-07-26T05:30:21.682Z,98249.75
2022-07-26T05:32:51.386Z,98258.03
2022-07-26T05:35:21.089Z,98257.22
2022-07-26T05:37:50.802Z,98258.53
2022-07-26T05:40:23.241Z,98261.47
2022-07-26T05:42:52.936Z,98257.94
2022-07-26T05:45:22.742Z,98260.41
2022-07-26T05:47:53.149Z,98251.97
2022-07-26T05:50:22.919Z,98259.84
2022-07-26T05:52:52.559Z,98255.50
2022-07-26T05:55:26.676Z,98261.59
2022-07-26T05:57:56.328Z,98262.63
2022-07-26T06:00:25.997Z,98259.00
2022-07-26T06:02:55.812Z,98268.63
2022-07-26T06:05:25.575Z,98269.09
2022-07-26T06:07:55.275Z,98262.06
2022-07-26T06:10:27.739Z,98259.59
2022-07-26T06:12:57.502Z,98259.31
2022-07-26T06:15:27.246Z,98265.34
2022-07-26T06:17:56.966Z,98254.03
2022-07-26T06:20:26.778Z,98266.28
2022-07-26T06:22:58.695Z,98277.22
2022-07-26T06:25:31.026Z,98264.28
2022-07-26T06:28:00.762Z,98269.16
2022-07-26T06:30:30.631Z,98267.59
2022-07-26T06:33:00.860Z,98264.53
2022-07-26T06:35:32.126Z,98268.16
2022-07-26T06:38:02.899Z,98271.03
2022-07-26T06:40:36.198Z,98277.97
2022-07-26T06:43:07.221Z,98273.81
2022-07-26T06:45:37.029Z,98268.38
2022-07-26T06:48:07.346Z,98267.50
2022-07-26T06:50:37.071Z,98261.91
2022-07-26T06:53:06.823Z,98264.25
2022-07-26T06:55:39.224Z,98264.09
2022-07-26T06:58:08.919Z,98271.22
2022-07-26T07:00:38.809Z,98264.09
2022-07-26T07:03:08.617Z,98275.59
2022-07-26T07:05:38.319Z,98278.31
2022-07-26T07:08:09.295Z,98268.09
2022-07-26T07:10:42.757Z,98274.44
2022-07-26T07:13:12.957Z,98271.78
2022-07-26T07:15:42.859Z,98272.41
2022-07-26T07:18:12.607Z,98268.09
2022-07-26T07:20:42.772Z,98264.63
2022-07-26T07:23:12.561Z,98260.28
2022-07-26T07:25:45.103Z,98267.50
2022-07-26T07:28:14.816Z,98260.88
2022-07-26T07:30:45.156Z,98271.47
2022-07-26T07:33:22.580Z,98276.47
2022-07-26T07:35:53.951Z,98264.06
2022-07-26T07:38:23.921Z,98264.25
2022-07-26T07:40:57.313Z,98264.63
2022-07-26T07:43:27.020Z,98263.66
2022-07-26T07:45:56.828Z,98262.22
2022-07-26T07:48:26.696Z,98260.84
2022-07-26T07:50:56.709Z,98267.31
2022-07-26T07:53:26.420Z,98262.66
2022-07-26T07:55:58.737Z,98264.16
2022-07-26T07:58:28.581Z,98254.53
2022-07-26T08:00:58.757Z,98259.72
2022-07-26T08:03:38.783Z,98258.25
2022-07-26T08:06:11.505Z,98259.59
2022-07-26T08:08:41.366Z,98263.22
2022-07-26T08:11:15.258Z,98258.06
2022-07-26T08:13:47.920Z,98254.91
2022-07-26T08:16:18.093Z,98259.47
2022-07-26T08:18:57.334Z,98253.41
2022-07-26T08:21:29.132Z,98257.56
2022-07-26T08:23:59.585Z,98253.19
2022-07-26T08:26:31.913Z,98259.78
2022-07-26T08:29:01.608Z,98256.47
2022-07-26T08:31:31.694Z,98263.75
2022-07-26T08:34:01.650Z,98257.63
2022-07-26T08:36:32.925Z,98267.97
2022-07-26T08:39:03.156Z,98262.81
2022-07-26T08:41:35.475Z,98266.78
2022-07-26T08:44:08.905Z,98269.16
2022-07-26T08:46:40.383Z,98270.13
2022-07-26T08:49:11.851Z,98269.63
2022-07-26T08:51:44.093Z,98254.66
2022-07-26T08:54:15.491Z,98261.22
2022-07-26T08:56:55.963Z,98265.72
2022-07-26T08:59:25.728Z,98269.16
2022-07-26T09:01:57.926Z,98269.44
2022-07-26T09:04:33.902Z,98265.41
2022-07-26T09:07:07.371Z,98263.50
2022-07-26T09:09:40.017Z,98268.41
2022-07-26T09:12:22.984Z,98268.81
2022-07-26T09:14:53.363Z,98272.38
2022-07-26T09:17:24.613Z,98270.56
2022-07-26T09:20:09.712Z,98272.94
2022-07-26T09:22:40.691Z,98273.00
2022-07-26T09:25:23.598Z,98272.00
2022-07-26T09:27:56.473Z,98278.22
2022-07-26T09:30:26.432Z,98282.00
2022-07-26T09:33:04.998Z,98279.66
2022-07-26T09:35:51.190Z,98279.91
2022-07-26T09:38:21.634Z,98273.66
2022-07-26T09:40:51.893Z,98279.75
2022-07-26T09:43:24.951Z,98276.41
2022-07-26T09:46:11.110Z,98281.59
2022-07-26T09:49:08.287Z,98277.78
2022-07-26T09:51:42.370Z,98280.22
2022-07-26T09:54:14.817Z,98292.50
2022-07-26T09:56:47.460Z,98276.03
2022-07-26T09:59:21.746Z,98285.50
2022-07-26T10:01:53.846Z,98285.28
2022-07-26T10:04:24.546Z,98303.69
2022-07-26T10:06:54.665Z,98287.41
2022-07-26T10:09:25.572Z,98303.13
2022-07-26T10:11:59.428Z,98291.91
2022-07-26T10:14:46.290Z,98297.53
2022-07-26T10:17:49.527Z,98299.50
2022-07-26T10:20:41.564Z,98304.00
2022-07-26T10:23:40.126Z,98279.75
2022-07-26T10:26:14.971Z,98297.00
2022-07-26T10:28:45.722Z,98307.13
2022-07-26T10:31:33.584Z,98303.22
2022-07-26T10:34:04.586Z,98302.38
2022-07-26T10:36:37.967Z,98296.31
2022-07-26T10:39:11.176Z,98307.47
2022-07-26T10:41:43.764Z,98306.25
2022-07-26T10:44:25.441Z,98303.91
2022-07-26T10:47:15.980Z,98305.66
2022-07-26T10:49:56.355Z,98300.44
2022-07-26T10:52:28.988Z,98299.00
2022-07-26T10:55:20.038Z,98302.09
2022-07-26T10:57:51.592Z,98294.84
2022-07-26T11:00:26.394Z,98298.72
2022-07-26T11:03:00.944Z,98308.69
2022-07-26T11:05:35.370Z,98304.56
2022-07-26T11:08:11.171Z,98301.81
2022-07-26T11:10:42.698Z,98317.47
2022-07-26T11:13:15.743Z,98301.75
2022-07-26T11:15:48.356Z,98301.00
2022-07-26T11:18:30.857Z,98306.47
2022-07-26T11:21:11.463Z,98303.81
2022-07-26T11:23:44.255Z,98313.81
2022-07-26T11:26:19.631Z,98299.47
2022-07-26T11:28:58.115Z,98294.06
2022-07-26T11:31:51.553Z,98285.50
2022-07-26T11:34:33.347Z,98298.97
2022-07-26T11:37:05.501Z,98311.38
2022-07-26T11:39:37.931Z,98306.81
2022-07-26T11:42:10.060Z,98294.25
2022-07-26T11:44:40.346Z,98294.59
2022-07-26T11:47:14.731Z,98294.88
2022-07-26T11:50:00.770Z,98297.34
2022-07-26T11:52:36.777Z,98295.50
2022-07-26T11:55:07.207Z,98291.84
2022-07-26T11:57:36.928Z,98302.38
2022-07-26T12:00:08.419Z,98299.34
2022-07-26T12:02:38.221Z,98297.59
2022-07-26T12:05:21.312Z,98296.19
2022-07-26T12:08:03.076Z,98295.66
2022-07-26T12:10:33.257Z,98287.56
2022-07-26T12:13:11.104Z,98300.56
2022-07-26T12:15:48.936Z,98286.53
2022-07-26T12:18:26.541Z,98284.91
2022-07-26T12:21:06.314Z,98287.72
2022-07-26T12:23:48.557Z,98288.44
2022-07-26T12:26:27.651Z,98283.19
2022-07-26T12:28:58.273Z,98287.75
2022-07-26T12:31:29.721Z,98276.81
2022-07-26T12:34:00.758Z,98280.22
2022-07-26T12:36:36.657Z,98281.25
2022-07-26T12:39:07.670Z,98287.16
2022-07-26T12:41:39.634Z,98283.69
2022-07-26T12:44:12.732Z,98280.19
2022-07-26T12:46:47.489Z,98280.28
2022-07-26T12:49:17.877Z,98281.81
2022-07-26T12:51:50.191Z,98276.91
2022-07-26T12:54:19.899Z,98276.00
2022-07-26T12:56:49.529Z,98287.44
2022-07-26T12:59:19.790Z,98277.28
2022-07-26T13:01:49.600Z,98280.00
2022-07-26T13:04:19.356Z,98277.28
2022-07-26T13:06:51.642Z,98271.34
2022-07-26T13:09:21.368Z,98267.44
2022-07-26T13:11:51.132Z,98259.63
2022-07-26T13:14:21.071Z,98280.28
2022-07-26T13:16:50.872Z,98269.25
2022-07-26T13:19:20.660Z,98266.97
2022-07-26T13:21:53.260Z,98256.81
2022-07-26T13:24:22.979Z,98253.88
2022-07-26T13:26:53.337Z,98252.47
2022-07-26T13:29:23.242Z,98253.31
2022-07-26T13:31:53.978Z,98246.25
2022-07-26T13:34:23.762Z,98250.50
2022-07-26T13:36:56.336Z,98256.03
2022-07-26T13:39:26.278Z,98244.72
2022-07-26T13:42:01.546Z,98252.81
2022-07-26T13:44:31.210Z,98236.28
2022-07-26T13:47:02.287Z,98247.94
2022-07-26T13:49:32.713Z,98235.28
2022-07-26T13:52:05.133Z,98235.53
2022-07-26T13:54:36.505Z,98235.56
2022-07-26T13:57:08.111Z,98235.00
2022-07-26T13:59:37.781Z,98231.88
2022-07-26T14:02:07.591Z,98229.41
2022-07-26T14:04:37.390Z,98225.69
2022-07-26T14:07:09.681Z,98224.00
2022-07-26T14:09:39.388Z,98228.75
2022-07-26T14:12:09.449Z,98229.72
2022-07-26T14:14:39.113Z,98228.03
2022-07-26T14:17:08.799Z,98225.50
2022-07-26T14:19:38.999Z,98229.78
2022-07-26T14:22:11.423Z,98227.41
2022-07-26T14:24:41.104Z,98235.81
2022-07-26T14:27:10.959Z,98234.50
2022-07-26T14:29:40.936Z,98228.88
2022-07-26T14:32:10.721Z,98232.25
2022-07-26T14:34:40.536Z,98233.31
2022-07-26T14:37:41.014Z,98233.91
2022-07-26T14:40:02.490Z,98222.66
2022-07-26T14:42:32.606Z,98227.72
2022-07-26T14:45:02.335Z,98227.75
2022-07-26T14:47:31.954Z,98236.00
2022-07-26T14:50:06.430Z,98231.53
2022-07-26T14:52:40.026Z,98226.63
2022-07-26T14:55:10.505Z,98231.78
2022-07-26T14:57:40.705Z,98240.06
2022-07-26T15:00:13.562Z,98229.66
2022-07-26T15:02:44.655Z,98229.84
2022-07-26T15:05:16.119Z,98219.22
2022-07-26T15:07:49.147Z,98214.78
2022-07-26T15:10:29.373Z,98219.59
2022-07-26T15:12:59.282Z,98223.66
2022-07-26T15:15:29.942Z,98216.00
2022-07-26T15:18:00.107Z,98214.19
2022-07-26T15:20:30.265Z,98221.97
2022-07-26T15:23:03.613Z,98212.06
2022-07-26T15:25:33.248Z,98212.03
2022-07-26T15:28:02.886Z,98211.84
2022-07-26T15:30:32.508Z,98212.28
2022-07-26T15:33:02.591Z,98208.56
2022-07-26T15:35:32.874Z,98204.66
2022-07-26T15:38:05.328Z,98207.47
2022-07-26T15:40:35.333Z,98210.28
2022-07-26T15:43:05.000Z,98201.56
2022-07-26T15:45:37.594Z,98205.41
2022-07-26T15:48:14.943Z,98196.69
2022-07-26T15:50:48.200Z,98196.13
2022-07-26T15:53:20.497Z,98202.16
2022-07-26T15:55:50.183Z,98197.84
2022-07-26T15:58:21.237Z,98197.59
2022-07-26T16:00:51.131Z,98203.53
2022-07-26T16:03:21.021Z,98197.75
2022-07-26T16:05:50.964Z,98197.66
2022-07-26T16:08:23.272Z,98195.19
2022-07-26T16:10:53.127Z,98198.88
2022-07-26T16:13:22.886Z,98192.38
2022-07-26T16:15:52.700Z,98193.88
2022-07-26T16:18:22.388Z,98184.50
2022-07-26T16:20:52.141Z,98184.22
2022-07-26T16:23:24.476Z,98182.28
2022-07-26T16:25:54.236Z,98174.88
2022-07-26T16:28:23.932Z,98180.16
2022-07-26T16:30:53.889Z,98176.88
2022-07-26T16:33:23.915Z,98173.38
2022-07-26T16:35:53.494Z,98183.81
2022-07-26T16:38:25.798Z,98177.66
2022-07-26T16:40:55.474Z,98177.84
2022-07-26T16:43:25.119Z,98177.44
2022-07-26T16:45:54.871Z,98169.13
2022-07-26T16:48:24.512Z,98171.03
2022-07-26T16:50:54.178Z,98187.25
2022-07-26T16:53:26.450Z,98176.56
2022-07-26T16:55:56.221Z,98178.78
2022-07-26T16:58:25.867Z,98172.72
2022-07-26T17:00:55.652Z,98176.50
2022-07-26T17:03:25.644Z,98176.91
2022-07-26T17:05:55.363Z,98174.56
2022-07-26T17:08:27.656Z,98175.09
2022-07-26T17:10:58.129Z,98172.19
2022-07-26T17:13:28.423Z,98164.09
2022-07-26T17:15:58.163Z,98167.81
2022-07-26T17:18:28.383Z,98171.56
2022-07-26T17:20:58.284Z,98173.31
2022-07-26T17:23:30.596Z,98167.91
2022-07-26T17:26:00.265Z,98169.84
2022-07-26T17:28:29.938Z,98163.03
2022-07-26T17:30:59.657Z,98159.63
2022-07-26T17:33:29.555Z,98170.28
2022-07-26T17:36:03.414Z,98160.38
2022-07-26T17:38:41.115Z,98159.63
2022-07-26T17:41:17.564Z,98160.75
2022-07-26T17:43:48.675Z,98165.31
2022-07-26T17:46:18.683Z,98163.59
2022-07-26T17:48:48.515Z,98161.84
2022-07-26T17:51:19.292Z,98167.13
2022-07-26T17:53:53.402Z,98170.88
2022-07-26T17:56:23.136Z,98165.97
2022-07-26T17:58:52.978Z,98165.31
2022-07-26T18:01:22.769Z,98168.19
2022-07-26T18:03:52.672Z,98162.78
2022-07-26T18:06:22.368Z,98163.94
2022-07-26T18:08:54.542Z,98162.88
2022-07-26T18:11:24.185Z,98167.28
2022-07-26T18:13:53.851Z,98163.59
2022-07-26T18:16:23.531Z,98163.16
2022-07-26T18:18:53.515Z,98160.34
2022-07-26T18:21:23.249Z,98166.63
2022-07-26T18:24:15.882Z,98163.19
2022-07-26T18:26:45.940Z,98158.09
2022-07-26T18:29:16.683Z,98160.41
2022-07-26T18:31:46.399Z,98159.03
2022-07-26T18:34:16.175Z,98153.94
2022-07-26T18:36:46.189Z,98164.34
2022-07-26T18:39:18.624Z,98155.81
2022-07-26T18:41:48.536Z,98160.78
2022-07-26T18:44:18.254Z,98161.41
2022-07-26T18:46:47.933Z,98162.66
2022-07-26T18:49:20.228Z,98165.44
2022-07-26T18:51:50.623Z,98161.72
2022-07-26T18:54:25.147Z,98160.16
2022-07-26T18:56:55.221Z,98160.94
2022-07-26T18:59:24.967Z,98169.94
2022-07-26T19:01:54.780Z,98174.75
2022-07-26T19:04:24.521Z,98171.94
2022-07-26T19:06:54.420Z,98166.19
2022-07-26T19:09:26.759Z,98182.63
2022-07-26T19:11:56.473Z,98185.16
2022-07-26T19:14:26.245Z,98188.09
2022-07-26T19:16:55.940Z,98192.75
2022-07-26T19:19:25.687Z,98196.75
2022-07-26T19:21:55.437Z,98195.81
2022-07-26T19:24:27.788Z,98207.91
2022-07-26T19:26:57.594Z,98211.63
2022-07-26T19:29:27.951Z,98208.97
2022-07-26T19:31:57.767Z,98206.94
2022-07-26T19:34:27.554Z,98216.69
2022-07-26T19:36:57.340Z,98226.75
2022-07-26T19:39:30.038Z,98222.59
2022-07-26T19:41:59.974Z,98230.19
2022-07-26T19:44:29.729Z,98230.47
2022-07-26T19:46:59.564Z,98233.13
2022-07-26T19:49:29.345Z,98232.00
2022-07-26T19:51:59.953Z,98238.16
2022-07-26T19:54:32.508Z,98235.22
2022-07-26T19:57:02.368Z,98238.78
2022-07-26T19:59:32.071Z,98238.78
2022-07-26T20:02:01.987Z,98251.75
2022-07-26T20:04:32.111Z,98247.94
2022-07-26T20:07:01.855Z,98246.38
2022-07-26T20:09:34.273Z,98248.97
2022-07-26T20:12:04.197Z,98243.72
2022-07-26T20:14:34.049Z,98252.09
2022-07-26T20:17:03.808Z,98254.56
2022-07-26T20:19:42.610Z,98251.59
2022-07-26T20:22:12.923Z,98253.72
2022-07-26T20:24:45.232Z,98255.09
2022-07-26T20:27:15.507Z,98251.97
2022-07-26T20:29:45.282Z,98245.16
2022-07-26T20:32:15.003Z,98251.63
2022-07-26T20:34:44.841Z,98250.16
2022-07-26T20:37:14.519Z,98246.78
2022-07-26T20:39:47.178Z,98233.47
2022-07-26T20:42:21.471Z,98248.41
2022-07-26T20:44:52.896Z,98245.88
2022-07-26T20:47:23.038Z,98246.72
2022-07-26T20:49:52.679Z,98251.38
2022-07-26T20:52:22.459Z,98248.81
2022-07-26T20:54:58.083Z,98251.25
2022-07-26T20:57:27.825Z,98244.88
2022-07-26T20:59:57.560Z,98245.13
2022-07-26T21:02:27.317Z,98241.78
2022-07-26T21:04:58.876Z,98250.59
2022-07-26T21:07:53.530Z,98247.00
2022-07-26T21:10:22.376Z,98250.41
2022-07-26T21:12:53.151Z,98253.28
2022-07-26T21:15:23.075Z,98259.56
2022-07-26T21:17:53.260Z,98256.00
2022-07-26T21:20:23.345Z,98253.84
2022-07-26T21:22:53.052Z,98244.97
2022-07-26T21:25:25.467Z,98242.41
2022-07-26T21:27:55.234Z,98251.72
2022-07-26T21:30:24.894Z,98249.75
2022-07-26T21:32:54.710Z,98256.34
2022-07-26T21:35:24.448Z,98254.81
2022-07-26T21:37:54.657Z,98246.22
2022-07-26T21:40:27.210Z,98254.66
2022-07-26T21:42:56.942Z,98253.03
2022-07-26T21:45:26.628Z,98253.47
2022-07-26T21:47:56.841Z,98249.47
2022-07-26T21:50:26.665Z,98250.44
2022-07-26T21:52:56.493Z,98242.69
2022-07-26T21:55:28.928Z,98251.03
2022-07-26T21:57:58.817Z,98244.69
2022-07-26T22:00:28.650Z,98247.03
2022-07-26T22:02:58.352Z,98245.03
2022-07-26T22:05:40.538Z,98252.59
2022-07-26T22:08:12.301Z,98240.25
2022-07-26T22:10:47.024Z,98245.94
2022-07-26T22:13:17.141Z,98245.38
2022-07-26T22:15:47.076Z,98253.34
2022-07-26T22:18:16.927Z,98257.22
2022-07-26T22:20:47.694Z,98257.22
2022-07-26T22:23:17.890Z,98253.59
2022-07-26T22:25:50.328Z,98256.53
2022-07-26T22:28:20.061Z,98260.53
2022-07-26T22:30:49.821Z,98255.41
2022-07-26T22:33:19.883Z,98247.56
2022-07-26T22:35:51.412Z,98248.13
2022-07-26T22:38:21.216Z,98257.47
2022-07-26T22:40:53.740Z,98264.63
2022-07-26T22:43:23.502Z,98257.75
2022-07-26T22:45:53.344Z,98256.06
2022-07-26T22:48:23.226Z,98255.88
2022-07-26T22:50:53.081Z,98255.44
2022-07-26T22:53:22.845Z,98260.63
2022-07-26T22:55:55.238Z,98266.59
2022-07-26T22:58:25.045Z,98253.97
2022-07-26T23:00:54.878Z,98252.75
2022-07-26T23:03:24.655Z,98246.03
2022-07-26T23:05:54.711Z,98258.56
2022-07-26T23:11:16.785Z,98252.56
2022-07-26T23:13:46.513Z,98259.72
2022-07-26T23:16:16.359Z,98252.09
2022-07-26T23:18:46.155Z,98256.84
2022-07-26T23:21:15.986Z,98251.81
2022-07-26T23:23:45.741Z,98267.69
2022-07-26T23:26:18.832Z,98261.44
2022-07-26T23:28:48.552Z,98261.44
2022-07-26T23:31:18.428Z,98262.47
2022-07-26T23:33:50.546Z,98260.06
2022-07-26T23:36:27.139Z,98262.38
2022-07-26T23:38:57.186Z,98261.00
2022-07-26T23:41:30.799Z,98265.34
2022-07-26T23:44:00.554Z,98255.19
2022-07-26T23:46:30.631Z,98259.09
2022-07-26T23:49:01.262Z,98257.28
2022-07-26T23:51:31.037Z,98262.97
2022-07-26T23:54:00.803Z,98259.97
2022-07-26T23:56:33.121Z,98271.16
2022-07-26T23:59:02.875Z,98267.66
